sensor_id;sensor_type;location;lat;lon;timestamp;P1;durP1;ratioP1;P2;durP2;ratioP2
32106;SDS011;18622;51.998;10.440;2023-05-01T02:46:17;9.07;;;3.10;;
32106;SDS011;18622;51.998;10.440;2023-05-01T02:48:47;10.55;;;4.00;;
32106;SDS011;18622;51.998;10.440;2023-05-01T02:51:17;10.40;;;3.10;;
32106;SDS011;18622;51.998;10.440;2023-05-01T02:53:45;6.92;;;3.60;;
32106;SDS011;18622;51.998;10.440;2023-05-01T02:56:13;8.23;;;3.20;;
32106;SDS011;18622;51.998;10.440;2023-05-01T02:58:41;10.37;;;3.47;;
32106;SDS011;18622;51.998;10.440;2023-05-01T03:01:09;9.17;;;3.43;;
32106;SDS011;18622;51.998;10.440;2023-05-01T03:03:37;4.93;;;3.00;;
32106;SDS011;18622;51.998;10.440;2023-05-01T03:06:05;9.87;;;2.80;;
32106;SDS011;18622;51.998;10.440;2023-05-01T03:08:33;7.73;;;3.90;;
32106;SDS011;18622;51.998;10.440;2023-05-01T03:11:09;8.13;;;2.97;;
32106;SDS011;18622;51.998;10.440;2023-05-01T03:13:34;10.27;;;3.63;;
32106;SDS011;18622;51.998;10.440;2023-05-01T03:16:02;11.33;;;3.00;;
32106;SDS011;18622;51.998;10.440;2023-05-01T03:18:29;8.07;;;3.70;;
32106;SDS011;18622;51.998;10.440;2023-05-01T03:20:57;6.93;;;3.40;;
32106;SDS011;18622;51.998;10.440;2023-05-01T03:23:25;12.47;;;3.60;;
32106;SDS011;18622;51.998;10.440;2023-05-01T03:25:53;11.77;;;3.53;;
32106;SDS011;18622;51.998;10.440;2023-05-01T03:28:22;9.93;;;3.27;;
32106;SDS011;18622;51.998;10.440;2023-05-01T03:30:50;9.60;;;3.00;;
32106;SDS011;18622;51.998;10.440;2023-05-01T03:33:17;14.07;;;3.10;;
32106;SDS011;18622;51.998;10.440;2023-05-01T03:35:45;7.50;;;3.20;;
32106;SDS011;18622;51.998;10.440;2023-05-01T03:38:13;12.70;;;3.20;;
32106;SDS011;18622;51.998;10.440;2023-05-01T03:40:41;11.83;;;3.33;;
32106;SDS011;18622;51.998;10.440;2023-05-01T03:43:09;14.60;;;3.10;;
32106;SDS011;18622;51.998;10.440;2023-05-01T03:45:37;12.90;;;3.37;;
32106;SDS011;18622;51.998;10.440;2023-05-01T03:48:04;13.17;;;3.77;;
32106;SDS011;18622;51.998;10.440;2023-05-01T03:50:32;7.27;;;3.17;;
32106;SDS011;18622;51.998;10.440;2023-05-01T03:53:00;10.00;;;3.97;;
32106;SDS011;18622;51.998;10.440;2023-05-01T03:58:06;9.77;;;4.13;;
32106;SDS011;18622;51.998;10.440;2023-05-01T04:00:34;5.77;;;2.93;;
32106;SDS011;18622;51.998;10.440;2023-05-01T04:03:02;11.37;;;3.20;;
32106;SDS011;18622;51.998;10.440;2023-05-01T04:05:30;10.88;;;3.58;;
32106;SDS011;18622;51.998;10.440;2023-05-01T04:07:59;14.77;;;3.13;;
32106;SDS011;18622;51.998;10.440;2023-05-01T04:10:27;6.33;;;3.23;;
32106;SDS011;18622;51.998;10.440;2023-05-01T04:12:54;12.03;;;3.63;;
32106;SDS011;18622;51.998;10.440;2023-05-01T04:15:22;8.20;;;3.40;;
32106;SDS011;18622;51.998;10.440;2023-05-01T04:17:50;8.10;;;3.10;;
32106;SDS011;18622;51.998;10.440;2023-05-01T04:20:18;9.25;;;3.10;;
32106;SDS011;18622;51.998;10.440;2023-05-01T04:22:46;10.43;;;3.07;;
32106;SDS011;18622;51.998;10.440;2023-05-01T04:25:15;9.33;;;3.13;;
32106;SDS011;18622;51.998;10.440;2023-05-01T04:27:42;10.20;;;3.60;;
32106;SDS011;18622;51.998;10.440;2023-05-01T04:30:10;11.43;;;3.17;;
32106;SDS011;18622;51.998;10.440;2023-05-01T04:32:38;6.47;;;3.20;;
32106;SDS011;18622;51.998;10.440;2023-05-01T04:35:06;7.07;;;2.70;;
32106;SDS011;18622;51.998;10.440;2023-05-01T04:37:35;7.45;;;2.58;;
32106;SDS011;18622;51.998;10.440;2023-05-01T04:40:03;10.60;;;3.07;;
32106;SDS011;18622;51.998;10.440;2023-05-01T04:45:08;7.50;;;3.03;;
32106;SDS011;18622;51.998;10.440;2023-05-01T04:47:36;13.75;;;3.50;;
32106;SDS011;18622;51.998;10.440;2023-05-01T04:50:05;11.13;;;3.20;;
32106;SDS011;18622;51.998;10.440;2023-05-01T04:52:33;8.15;;;2.65;;
32106;SDS011;18622;51.998;10.440;2023-05-01T04:55:01;6.53;;;3.03;;
32106;SDS011;18622;51.998;10.440;2023-05-01T04:57:29;9.33;;;3.37;;
32106;SDS011;18622;51.998;10.440;2023-05-01T04:59:56;8.80;;;3.50;;
32106;SDS011;18622;51.998;10.440;2023-05-01T05:02:24;9.40;;;3.67;;
32106;SDS011;18622;51.998;10.440;2023-05-01T05:04:52;7.70;;;2.93;;
32106;SDS011;18622;51.998;10.440;2023-05-01T05:07:21;7.08;;;3.33;;
32106;SDS011;18622;51.998;10.440;2023-05-01T05:09:49;7.87;;;3.57;;
32106;SDS011;18622;51.998;10.440;2023-05-01T05:12:17;10.43;;;2.67;;
32106;SDS011;18622;51.998;10.440;2023-05-01T05:14:44;8.67;;;3.27;;
32106;SDS011;18622;51.998;10.440;2023-05-01T05:17:13;9.43;;;3.13;;
32106;SDS011;18622;51.998;10.440;2023-05-01T05:19:41;6.17;;;2.90;;
32106;SDS011;18622;51.998;10.440;2023-05-01T05:22:08;10.00;;;3.07;;
32106;SDS011;18622;51.998;10.440;2023-05-01T05:24:37;7.97;;;2.85;;
32106;SDS011;18622;51.998;10.440;2023-05-01T05:27:05;8.07;;;3.10;;
32106;SDS011;18622;51.998;10.440;2023-05-01T05:29:33;10.78;;;3.00;;
32106;SDS011;18622;51.998;10.440;2023-05-01T14:45:55;2.27;;;1.90;;
32106;SDS011;18622;51.998;10.440;2023-05-01T14:48:24;1.73;;;1.63;;
32106;SDS011;18622;51.998;10.440;2023-05-01T14:50:54;3.83;;;1.90;;
32106;SDS011;18622;51.998;10.440;2023-05-01T14:53:24;3.10;;;1.60;;
32106;SDS011;18622;51.998;10.440;2023-05-01T14:55:52;1.62;;;1.52;;
32106;SDS011;18622;51.998;10.440;2023-05-01T14:58:20;1.67;;;1.57;;
32106;SDS011;18622;51.998;10.440;2023-05-01T15:03:32;1.67;;;1.57;;
32106;SDS011;18622;51.998;10.440;2023-05-01T15:06:07;2.97;;;1.67;;
32106;SDS011;18622;51.998;10.440;2023-05-01T15:08:36;2.17;;;1.80;;
32106;SDS011;18622;51.998;10.440;2023-05-01T15:11:04;4.30;;;1.63;;
32106;SDS011;18622;51.998;10.440;2023-05-01T15:13:32;2.10;;;1.43;;
32106;SDS011;18622;51.998;10.440;2023-05-01T15:16:01;2.98;;;1.67;;
32106;SDS011;18622;51.998;10.440;2023-05-01T15:18:29;1.57;;;1.43;;
32106;SDS011;18622;51.998;10.440;2023-05-01T15:20:57;3.27;;;1.60;;
32106;SDS011;18622;51.998;10.440;2023-05-01T15:23:25;1.30;;;1.20;;
32106;SDS011;18622;51.998;10.440;2023-05-01T15:25:53;3.00;;;1.63;;
32106;SDS011;18622;51.998;10.440;2023-05-01T15:28:21;1.63;;;1.50;;
32106;SDS011;18622;51.998;10.440;2023-05-01T15:30:52;3.55;;;1.82;;
32106;SDS011;18622;51.998;10.440;2023-05-01T15:33:21;1.57;;;1.43;;
32106;SDS011;18622;51.998;10.440;2023-05-01T15:35:49;2.47;;;1.53;;
32106;SDS011;18622;51.998;10.440;2023-05-01T15:38:17;4.30;;;1.40;;
32106;SDS011;18622;51.998;10.440;2023-05-01T15:40:49;2.20;;;1.50;;
32106;SDS011;18622;51.998;10.440;2023-05-01T15:43:17;2.43;;;1.53;;
32106;SDS011;18622;51.998;10.440;2023-05-01T15:45:46;2.08;;;1.40;;
32106;SDS011;18622;51.998;10.440;2023-05-01T15:48:13;1.73;;;1.63;;
32106;SDS011;18622;51.998;10.440;2023-05-01T15:50:41;2.93;;;1.43;;
32106;SDS011;18622;51.998;10.440;2023-05-01T15:53:09;2.87;;;1.90;;
32106;SDS011;18622;51.998;10.440;2023-05-01T15:55:38;2.17;;;1.50;;
32106;SDS011;18622;51.998;10.440;2023-05-01T15:58:05;2.40;;;1.30;;
32106;SDS011;18622;51.998;10.440;2023-05-01T16:00:34;2.10;;;1.90;;
32106;SDS011;18622;51.998;10.440;2023-05-01T16:05:30;3.30;;;1.62;;
32106;SDS011;18622;51.998;10.440;2023-05-01T16:07:59;1.40;;;1.27;;
32106;SDS011;18622;51.998;10.440;2023-05-01T16:10:31;5.53;;;1.70;;
32106;SDS011;18622;51.998;10.440;2023-05-01T16:13:05;1.95;;;1.57;;
32106;SDS011;18622;51.998;10.440;2023-05-01T16:15:33;2.90;;;1.65;;
32106;SDS011;18622;51.998;10.440;2023-05-01T16:18:02;2.45;;;1.55;;
32106;SDS011;18622;51.998;10.440;2023-05-01T16:20:39;3.47;;;1.80;;
32106;SDS011;18622;51.998;10.440;2023-05-01T16:23:02;2.67;;;1.60;;
32106;SDS011;18622;51.998;10.440;2023-05-01T16:25:30;4.77;;;1.53;;
32106;SDS011;18622;51.998;10.440;2023-05-01T16:27:58;2.23;;;1.30;;
32106;SDS011;18622;51.998;10.440;2023-05-01T16:30:26;1.83;;;1.73;;
32106;SDS011;18622;51.998;10.440;2023-05-01T16:32:54;2.40;;;2.07;;
32106;SDS011;18622;51.998;10.440;2023-05-01T16:35:25;2.45;;;1.37;;
32106;SDS011;18622;51.998;10.440;2023-05-01T16:37:53;5.53;;;1.80;;
32106;SDS011;18622;51.998;10.440;2023-05-01T16:40:21;3.30;;;1.90;;
32106;SDS011;18622;51.998;10.440;2023-05-01T16:42:49;2.50;;;1.40;;
32106;SDS011;18622;51.998;10.440;2023-05-01T16:45:19;2.60;;;1.65;;
32106;SDS011;18622;51.998;10.440;2023-05-01T16:47:47;3.95;;;1.85;;
32106;SDS011;18622;51.998;10.440;2023-05-01T16:50:16;2.62;;;1.55;;
32106;SDS011;18622;51.998;10.440;2023-05-01T16:52:46;2.80;;;2.10;;
32106;SDS011;18622;51.998;10.440;2023-05-01T16:55:14;3.10;;;1.83;;
32106;SDS011;18622;51.998;10.440;2023-05-01T16:57:42;3.95;;;1.57;;
32106;SDS011;18622;51.998;10.440;2023-05-01T17:00:10;2.40;;;1.73;;
32106;SDS011;18622;51.998;10.440;2023-05-01T17:02:40;3.33;;;1.73;;
32106;SDS011;18622;51.998;10.440;2023-05-01T17:07:36;2.90;;;1.67;;
32106;SDS011;18622;51.998;10.440;2023-05-01T17:10:04;5.93;;;2.00;;
32106;SDS011;18622;51.998;10.440;2023-05-01T17:12:33;4.85;;;2.87;;
32106;SDS011;18622;51.998;10.440;2023-05-01T17:15:01;5.17;;;2.50;;
32106;SDS011;18622;51.998;10.440;2023-05-01T17:17:29;5.43;;;2.97;;
32106;SDS011;18622;51.998;10.440;2023-05-01T17:19:57;8.07;;;2.77;;
32106;SDS011;18622;51.998;10.440;2023-05-01T17:22:25;6.58;;;2.77;;
32106;SDS011;18622;51.998;10.440;2023-05-01T17:24:53;4.13;;;2.80;;
32106;SDS011;18622;51.998;10.440;2023-05-01T17:27:21;4.00;;;2.60;;
32106;SDS011;18622;51.998;10.440;2023-05-01T17:29:49;5.97;;;2.87;;
32106;SDS011;18622;51.998;10.440;2023-05-01T17:32:17;6.67;;;3.17;;
32106;SDS011;18622;51.998;10.440;2023-05-01T17:34:47;8.68;;;3.40;;
32106;SDS011;18622;51.998;10.440;2023-05-01T17:37:16;10.00;;;2.90;;
32106;SDS011;18622;51.998;10.440;2023-05-01T17:39:45;5.25;;;2.60;;
32106;SDS011;18622;51.998;10.440;2023-05-01T17:42:13;5.17;;;2.73;;
32106;SDS011;18622;51.998;10.440;2023-05-01T17:44:40;6.23;;;3.10;;
32106;SDS011;18622;51.998;10.440;2023-05-01T17:47:08;3.97;;;2.97;;
32106;SDS011;18622;51.998;10.440;2023-05-01T17:49:36;7.30;;;2.37;;
32106;SDS011;18622;51.998;10.440;2023-05-01T17:52:04;4.73;;;2.43;;
32106;SDS011;18622;51.998;10.440;2023-05-01T17:54:32;6.63;;;2.83;;
32106;SDS011;18622;51.998;10.440;2023-05-01T17:57:00;6.27;;;3.37;;
32106;SDS011;18622;51.998;10.440;2023-05-01T17:59:28;6.50;;;2.72;;
32106;SDS011;18622;51.998;10.440;2023-05-01T18:01:56;5.77;;;2.80;;
32106;SDS011;18622;51.998;10.440;2023-05-01T18:04:24;7.07;;;2.87;;
32106;SDS011;18622;51.998;10.440;2023-05-01T18:06:52;5.13;;;2.70;;
32106;SDS011;18622;51.998;10.440;2023-05-01T18:09:20;6.55;;;3.25;;
32106;SDS011;18622;51.998;10.440;2023-05-01T18:11:51;8.83;;;5.77;;
32106;SDS011;18622;51.998;10.440;2023-05-01T18:14:20;7.73;;;4.90;;
32106;SDS011;18622;51.998;10.440;2023-05-01T18:16:48;6.17;;;4.00;;
32106;SDS011;18622;51.998;10.440;2023-05-01T18:19:17;9.83;;;3.95;;
32106;SDS011;18622;51.998;10.440;2023-05-01T18:21:45;5.50;;;3.27;;
32106;SDS011;18622;51.998;10.440;2023-05-01T18:24:13;5.87;;;2.97;;
32106;SDS011;18622;51.998;10.440;2023-05-01T18:26:41;5.63;;;3.20;;
32106;SDS011;18622;51.998;10.440;2023-05-01T18:29:09;9.70;;;3.57;;
32106;SDS011;18622;51.998;10.440;2023-05-01T18:31:38;4.08;;;2.45;;
32106;SDS011;18622;51.998;10.440;2023-05-01T18:34:06;10.80;;;2.70;;
32106;SDS011;18622;51.998;10.440;2023-05-01T18:36:35;6.45;;;2.87;;
32106;SDS011;18622;51.998;10.440;2023-05-01T18:39:02;10.27;;;2.67;;
32106;SDS011;18622;51.998;10.440;2023-05-01T18:41:30;6.00;;;2.63;;
32106;SDS011;18622;51.998;10.440;2023-05-01T18:43:59;5.50;;;3.17;;
32106;SDS011;18622;51.998;10.440;2023-05-01T18:46:29;6.87;;;2.67;;
32106;SDS011;18622;51.998;10.440;2023-05-01T18:48:57;7.95;;;2.77;;
32106;SDS011;18622;51.998;10.440;2023-05-01T18:51:25;6.00;;;2.67;;
32106;SDS011;18622;51.998;10.440;2023-05-01T18:53:52;7.70;;;2.53;;
32106;SDS011;18622;51.998;10.440;2023-05-01T18:56:20;7.13;;;2.87;;
32106;SDS011;18622;51.998;10.440;2023-05-01T18:58:49;6.65;;;2.65;;
32106;SDS011;18622;51.998;10.440;2023-05-01T19:01:17;6.87;;;2.57;;
32106;SDS011;18622;51.998;10.440;2023-05-01T19:03:45;6.95;;;2.80;;
32106;SDS011;18622;51.998;10.440;2023-05-01T19:06:13;10.93;;;4.23;;
32106;SDS011;18622;51.998;10.440;2023-05-01T19:08:41;5.23;;;2.60;;
32106;SDS011;18622;51.998;10.440;2023-05-01T19:11:09;7.23;;;2.40;;
32106;SDS011;18622;51.998;10.440;2023-05-01T19:13:37;5.17;;;2.67;;
32106;SDS011;18622;51.998;10.440;2023-05-01T19:16:04;8.00;;;2.37;;
32106;SDS011;18622;51.998;10.440;2023-05-01T19:18:32;3.20;;;2.37;;
32106;SDS011;18622;51.998;10.440;2023-05-01T19:21:02;5.95;;;2.55;;
32106;SDS011;18622;51.998;10.440;2023-05-01T19:23:30;4.72;;;2.65;;
32106;SDS011;18622;51.998;10.440;2023-05-01T19:26:00;6.15;;;3.02;;
32106;SDS011;18622;51.998;10.440;2023-05-01T19:28:28;6.12;;;3.77;;
32106;SDS011;18622;51.998;10.440;2023-05-01T19:30:56;5.70;;;3.13;;
32106;SDS011;18622;51.998;10.440;2023-05-01T19:33:24;12.03;;;2.83;;
32106;SDS011;18622;51.998;10.440;2023-05-01T19:35:52;8.97;;;2.97;;
32106;SDS011;18622;51.998;10.440;2023-05-01T19:38:20;8.20;;;3.10;;
32106;SDS011;18622;51.998;10.440;2023-05-01T19:40:48;17.07;;;3.30;;
32106;SDS011;18622;51.998;10.440;2023-05-01T19:43:15;5.40;;;2.40;;
32106;SDS011;18622;51.998;10.440;2023-05-01T19:45:43;6.67;;;3.00;;
32106;SDS011;18622;51.998;10.440;2023-05-01T19:48:11;4.23;;;2.20;;
32106;SDS011;18622;51.998;10.440;2023-05-01T19:50:40;10.98;;;2.77;;
32106;SDS011;18622;51.998;10.440;2023-05-01T19:53:09;5.17;;;3.47;;
32106;SDS011;18622;51.998;10.440;2023-05-01T19:55:37;18.47;;;3.33;;
32106;SDS011;18622;51.998;10.440;2023-05-01T19:58:06;6.08;;;2.55;;
32106;SDS011;18622;51.998;10.440;2023-05-01T20:00:34;6.40;;;3.03;;
32106;SDS011;18622;51.998;10.440;2023-05-01T20:03:01;7.07;;;3.17;;
32106;SDS011;18622;51.998;10.440;2023-05-01T20:05:30;4.15;;;2.25;;
32106;SDS011;18622;51.998;10.440;2023-05-01T20:07:58;6.33;;;2.60;;
32106;SDS011;18622;51.998;10.440;2023-05-01T20:10:26;3.80;;;2.87;;
32106;SDS011;18622;51.998;10.440;2023-05-01T20:12:54;7.20;;;2.70;;
32106;SDS011;18622;51.998;10.440;2023-05-01T20:15:22;9.00;;;3.60;;
32106;SDS011;18622;51.998;10.440;2023-05-01T20:17:50;4.53;;;2.97;;
32106;SDS011;18622;51.998;10.440;2023-05-01T20:20:18;8.37;;;2.87;;
32106;SDS011;18622;51.998;10.440;2023-05-01T20:22:49;3.52;;;2.55;;
32106;SDS011;18622;51.998;10.440;2023-05-01T20:25:17;4.67;;;2.55;;
32106;SDS011;18622;51.998;10.440;2023-05-01T20:27:45;7.50;;;2.70;;
32106;SDS011;18622;51.998;10.440;2023-05-01T20:30:13;7.23;;;2.73;;
32106;SDS011;18622;51.998;10.440;2023-05-01T20:32:44;5.83;;;2.50;;
32106;SDS011;18622;51.998;10.440;2023-05-01T20:35:12;6.30;;;2.67;;
32106;SDS011;18622;51.998;10.440;2023-05-01T20:37:40;9.33;;;4.83;;
32106;SDS011;18622;51.998;10.440;2023-05-01T20:40:08;8.93;;;4.67;;
32106;SDS011;18622;51.998;10.440;2023-05-01T20:42:36;15.05;;;4.83;;
